sensor_id;sensor_type;location;lat;lon;timestamp;temperature;humidity
80238;DHT22;69544;42.138;24.742;2023-06-10T00:01:48;26.20;42.00
80238;DHT22;69544;42.138;24.742;2023-06-10T00:04:14;26.10;41.90
80238;DHT22;69544;42.138;24.742;2023-06-10T00:06:41;26.20;42.00
80238;DHT22;69544;42.138;24.742;2023-06-10T00:09:09;26.20;42.00
80238;DHT22;69544;42.138;24.742;2023-06-10T00:11:39;26.10;41.90
80238;DHT22;69544;42.138;24.742;2023-06-10T00:14:06;26.20;42.00
80238;DHT22;69544;42.138;24.742;2023-06-10T00:16:32;26.20;42.00
80238;DHT22;69544;42.138;24.742;2023-06-10T00:19:00;26.20;42.00
80238;DHT22;69544;42.138;24.742;2023-06-10T00:21:35;26.20;42.00
80238;DHT22;69544;42.138;24.742;2023-06-10T00:24:09;26.10;41.90
80238;DHT22;69544;42.138;24.742;2023-06-10T00:26:40;26.10;41.90
80238;DHT22;69544;42.138;24.742;2023-06-10T00:29:07;26.10;42.00
80238;DHT22;69544;42.138;24.742;2023-06-10T00:31:37;26.10;42.00
80238;DHT22;69544;42.138;24.742;2023-06-10T00:34:03;26.10;41.90
80238;DHT22;69544;42.138;24.742;2023-06-10T00:36:29;26.10;42.00
80238;DHT22;69544;42.138;24.742;2023-06-10T00:38:56;26.10;42.00
80238;DHT22;69544;42.138;24.742;2023-06-10T00:41:22;26.10;42.00
80238;DHT22;69544;42.138;24.742;2023-06-10T00:43:48;26.10;42.00
80238;DHT22;69544;42.138;24.742;2023-06-10T00:46:14;26.10;42.00
80238;DHT22;69544;42.138;24.742;2023-06-10T00:48:42;26.10;42.00
80238;DHT22;69544;42.138;24.742;2023-06-10T00:51:08;26.10;42.00
80238;DHT22;69544;42.138;24.742;2023-06-10T00:53:36;26.10;42.00
80238;DHT22;69544;42.138;24.742;2023-06-10T00:56:03;26.10;42.00
80238;DHT22;69544;42.138;24.742;2023-06-10T00:58:29;26.10;42.00
80238;DHT22;69544;42.138;24.742;2023-06-10T01:00:55;26.10;42.10
80238;DHT22;69544;42.138;24.742;2023-06-10T01:03:21;26.10;42.00
80238;DHT22;69544;42.138;24.742;2023-06-10T01:05:53;26.10;42.00
80238;DHT22;69544;42.138;24.742;2023-06-10T01:09:28;26.10;42.10
80238;DHT22;69544;42.138;24.742;2023-06-10T01:11:23;26.10;42.10
80238;DHT22;69544;42.138;24.742;2023-06-10T01:13:51;26.10;42.10
80238;DHT22;69544;42.138;24.742;2023-06-10T01:16:18;26.10;42.10
80238;DHT22;69544;42.138;24.742;2023-06-10T01:18:45;26.10;42.10
80238;DHT22;69544;42.138;24.742;2023-06-10T01:21:21;26.10;42.10
80238;DHT22;69544;42.138;24.742;2023-06-10T01:23:51;26.10;42.10
80238;DHT22;69544;42.138;24.742;2023-06-10T01:26:23;26.10;42.10
80238;DHT22;69544;42.138;24.742;2023-06-10T01:28:58;26.10;42.10
80238;DHT22;69544;42.138;24.742;2023-06-10T01:31:41;26.10;42.10
80238;DHT22;69544;42.138;24.742;2023-06-10T01:34:14;26.10;42.10
80238;DHT22;69544;42.138;24.742;2023-06-10T01:36:46;26.10;42.10
80238;DHT22;69544;42.138;24.742;2023-06-10T01:39:15;26.10;42.10
80238;DHT22;69544;42.138;24.742;2023-06-10T01:41:42;26.10;42.10
80238;DHT22;69544;42.138;24.742;2023-06-10T01:44:09;26.10;42.10
80238;DHT22;69544;42.138;24.742;2023-06-10T01:46:34;26.10;42.10
80238;DHT22;69544;42.138;24.742;2023-06-10T01:49:00;26.00;42.00
80238;DHT22;69544;42.138;24.742;2023-06-10T01:51:26;26.00;42.10
80238;DHT22;69544;42.138;24.742;2023-06-10T01:53:52;26.10;42.10
80238;DHT22;69544;42.138;24.742;2023-06-10T01:56:18;26.10;42.10
80238;DHT22;69544;42.138;24.742;2023-06-10T01:58:46;26.10;42.10
80238;DHT22;69544;42.138;24.742;2023-06-10T02:01:12;26.10;42.10
80238;DHT22;69544;42.138;24.742;2023-06-10T02:03:37;26.10;42.10
80238;DHT22;69544;42.138;24.742;2023-06-10T02:06:03;26.10;42.10
80238;DHT22;69544;42.138;24.742;2023-06-10T02:08:29;26.10;42.10
80238;DHT22;69544;42.138;24.742;2023-06-10T02:10:55;26.10;42.10
80238;DHT22;69544;42.138;24.742;2023-06-10T02:13:21;26.00;42.00
80238;DHT22;69544;42.138;24.742;2023-06-10T02:15:47;26.10;42.10
80238;DHT22;69544;42.138;24.742;2023-06-10T02:18:12;26.00;42.00
80238;DHT22;69544;42.138;24.742;2023-06-10T02:20:38;26.10;43.20
80238;DHT22;69544;42.138;24.742;2023-06-10T02:23:04;26.10;42.10
80238;DHT22;69544;42.138;24.742;2023-06-10T02:25:30;26.10;42.10
80238;DHT22;69544;42.138;24.742;2023-06-10T02:27:56;26.00;42.10
80238;DHT22;69544;42.138;24.742;2023-06-10T02:30:22;26.00;42.00
80238;DHT22;69544;42.138;24.742;2023-06-10T02:32:48;26.00;42.00
80238;DHT22;69544;42.138;24.742;2023-06-10T02:35:17;26.00;42.10
80238;DHT22;69544;42.138;24.742;2023-06-10T02:37:43;26.10;42.10
80238;DHT22;69544;42.138;24.742;2023-06-10T02:40:10;26.00;42.00
80238;DHT22;69544;42.138;24.742;2023-06-10T02:42:36;26.10;42.10
80238;DHT22;69544;42.138;24.742;2023-06-10T02:45:02;26.10;42.10
80238;DHT22;69544;42.138;24.742;2023-06-10T02:47:28;26.10;42.00
80238;DHT22;69544;42.138;24.742;2023-06-10T02:49:54;26.10;42.10
80238;DHT22;69544;42.138;24.742;2023-06-10T02:52:20;26.00;42.00
80238;DHT22;69544;42.138;24.742;2023-06-10T02:54:46;26.00;42.00
80238;DHT22;69544;42.138;24.742;2023-06-10T02:57:12;26.00;42.00
80238;DHT22;69544;42.138;24.742;2023-06-10T02:59:39;26.00;42.00
80238;DHT22;69544;42.138;24.742;2023-06-10T03:02:05;26.10;42.00
80238;DHT22;69544;42.138;24.742;2023-06-10T03:04:31;26.00;42.00
80238;DHT22;69544;42.138;24.742;2023-06-10T03:06:57;26.10;42.10
80238;DHT22;69544;42.138;24.742;2023-06-10T03:09:23;26.10;42.10
80238;DHT22;69544;42.138;24.742;2023-06-10T03:11:49;26.10;42.10
80238;DHT22;69544;42.138;24.742;2023-06-10T03:14:15;26.10;42.10
80238;DHT22;69544;42.138;24.742;2023-06-10T03:16:40;26.10;42.00
80238;DHT22;69544;42.138;24.742;2023-06-10T03:19:08;26.00;41.90
80238;DHT22;69544;42.138;24.742;2023-06-10T03:21:34;26.10;42.00
80238;DHT22;69544;42.138;24.742;2023-06-10T03:24:00;26.10;42.00
80238;DHT22;69544;42.138;24.742;2023-06-10T03:26:26;26.10;42.10
80238;DHT22;69544;42.138;24.742;2023-06-10T03:28:53;26.10;42.10
80238;DHT22;69544;42.138;24.742;2023-06-10T03:31:19;26.10;42.00
80238;DHT22;69544;42.138;24.742;2023-06-10T03:33:44;26.10;42.00
80238;DHT22;69544;42.138;24.742;2023-06-10T03:36:10;26.10;42.00
80238;DHT22;69544;42.138;24.742;2023-06-10T03:38:36;26.10;42.00
80238;DHT22;69544;42.138;24.742;2023-06-10T03:41:02;26.10;42.00
80238;DHT22;69544;42.138;24.742;2023-06-10T03:43:28;26.10;42.00
80238;DHT22;69544;42.138;24.742;2023-06-10T03:45:54;26.10;42.00
80238;DHT22;69544;42.138;24.742;2023-06-10T03:48:20;26.10;42.00
80238;DHT22;69544;42.138;24.742;2023-06-10T03:50:46;26.10;42.00
80238;DHT22;69544;42.138;24.742;2023-06-10T03:53:13;26.10;42.00
80238;DHT22;69544;42.138;24.742;2023-06-10T03:55:39;26.10;42.00
80238;DHT22;69544;42.138;24.742;2023-06-10T03:58:05;26.00;41.90
80238;DHT22;69544;42.138;24.742;2023-06-10T04:00:30;26.10;41.90
80238;DHT22;69544;42.138;24.742;2023-06-10T04:02:58;26.10;42.00
80238;DHT22;69544;42.138;24.742;2023-06-10T04:05:24;26.10;42.00
80238;DHT22;69544;42.138;24.742;2023-06-10T04:07:50;26.10;42.00
80238;DHT22;69544;42.138;24.742;2023-06-10T04:10:16;26.10;41.90
80238;DHT22;69544;42.138;24.742;2023-06-10T04:12:42;26.10;42.00
80238;DHT22;69544;42.138;24.742;2023-06-10T04:15:07;26.10;42.00
80238;DHT22;69544;42.138;24.742;2023-06-10T04:17:34;26.10;41.90
80238;DHT22;69544;42.138;24.742;2023-06-10T04:20:00;26.00;41.90
80238;DHT22;69544;42.138;24.742;2023-06-10T04:22:26;26.10;41.90
80238;DHT22;69544;42.138;24.742;2023-06-10T04:24:52;26.10;41.90
80238;DHT22;69544;42.138;24.742;2023-06-10T04:27:18;26.10;41.90
80238;DHT22;69544;42.138;24.742;2023-06-10T04:29:44;26.10;42.00
80238;DHT22;69544;42.138;24.742;2023-06-10T04:32:10;26.10;42.00
80238;DHT22;69544;42.138;24.742;2023-06-10T04:34:36;26.10;42.00
80238;DHT22;69544;42.138;24.742;2023-06-10T04:37:04;26.10;42.00
80238;DHT22;69544;42.138;24.742;2023-06-10T04:39:30;26.00;41.90
80238;DHT22;69544;42.138;24.742;2023-06-10T04:41:57;26.10;42.00
80238;DHT22;69544;42.138;24.742;2023-06-10T04:44:22;26.10;42.00
80238;DHT22;69544;42.138;24.742;2023-06-10T04:46:48;26.00;41.90
80238;DHT22;69544;42.138;24.742;2023-06-10T04:49:14;26.10;42.00
80238;DHT22;69544;42.138;24.742;2023-06-10T04:51:40;26.00;41.90
80238;DHT22;69544;42.138;24.742;2023-06-10T04:54:06;26.10;42.00
80238;DHT22;69544;42.138;24.742;2023-06-10T04:56:32;26.00;41.90
80238;DHT22;69544;42.138;24.742;2023-06-10T04:58:59;26.10;42.00
80238;DHT22;69544;42.138;24.742;2023-06-10T05:01:25;26.10;41.90
80238;DHT22;69544;42.138;24.742;2023-06-10T05:03:51;26.10;41.90
80238;DHT22;69544;42.138;24.742;2023-06-10T05:06:17;26.10;42.00
80238;DHT22;69544;42.138;24.742;2023-06-10T05:08:43;26.10;42.00
80238;DHT22;69544;42.138;24.742;2023-06-10T05:11:08;26.10;41.90
80238;DHT22;69544;42.138;24.742;2023-06-10T05:13:34;26.10;41.90
80238;DHT22;69544;42.138;24.742;2023-06-10T05:16:00;26.10;42.00
80238;DHT22;69544;42.138;24.742;2023-06-10T05:18:26;26.10;42.00
80238;DHT22;69544;42.138;24.742;2023-06-10T05:20:52;26.10;42.00
80238;DHT22;69544;42.138;24.742;2023-06-10T05:23:19;26.10;42.00
80238;DHT22;69544;42.138;24.742;2023-06-10T05:25:45;26.10;42.00
80238;DHT22;69544;42.138;24.742;2023-06-10T05:28:11;26.10;42.00
80238;DHT22;69544;42.138;24.742;2023-06-10T05:30:37;26.10;42.00
80238;DHT22;69544;42.138;24.742;2023-06-10T05:33:04;26.00;41.90
80238;DHT22;69544;42.138;24.742;2023-06-10T05:35:30;26.10;41.90
80238;DHT22;69544;42.138;24.742;2023-06-10T05:37:56;26.10;42.00
80238;DHT22;69544;42.138;24.742;2023-06-10T05:40:22;26.10;41.90
80238;DHT22;69544;42.138;24.742;2023-06-10T05:42:47;26.10;41.90
80238;DHT22;69544;42.138;24.742;2023-06-10T05:45:13;26.10;41.90
80238;DHT22;69544;42.138;24.742;2023-06-10T05:47:39;26.10;41.90
80238;DHT22;69544;42.138;24.742;2023-06-10T05:50:06;26.10;41.90
80238;DHT22;69544;42.138;24.742;2023-06-10T05:52:35;26.10;41.90
80238;DHT22;69544;42.138;24.742;2023-06-10T05:55:05;26.10;41.90
80238;DHT22;69544;42.138;24.742;2023-06-10T05:57:31;26.10;41.90
80238;DHT22;69544;42.138;24.742;2023-06-10T05:59:56;26.10;41.90
80238;DHT22;69544;42.138;24.742;2023-06-10T06:02:22;26.10;41.90
80238;DHT22;69544;42.138;24.742;2023-06-10T06:04:48;26.10;41.90
80238;DHT22;69544;42.138;24.742;2023-06-10T06:07:14;26.10;41.90
80238;DHT22;69544;42.138;24.742;2023-06-10T06:09:40;26.10;41.90
80238;DHT22;69544;42.138;24.742;2023-06-10T06:12:06;26.10;41.80
80238;DHT22;69544;42.138;24.742;2023-06-10T06:14:36;26.10;41.90
80238;DHT22;69544;42.138;24.742;2023-06-10T06:17:02;26.10;41.80
80238;DHT22;69544;42.138;24.742;2023-06-10T06:19:28;26.10;41.80
80238;DHT22;69544;42.138;24.742;2023-06-10T06:21:54;26.10;41.80
80238;DHT22;69544;42.138;24.742;2023-06-10T06:24:20;26.10;41.80
80238;DHT22;69544;42.138;24.742;2023-06-10T06:26:45;26.10;41.80
80238;DHT22;69544;42.138;24.742;2023-06-10T06:29:11;26.10;41.80
80238;DHT22;69544;42.138;24.742;2023-06-10T06:31:37;26.10;41.80
80238;DHT22;69544;42.138;24.742;2023-06-10T06:34:03;26.10;41.80
80238;DHT22;69544;42.138;24.742;2023-06-10T06:36:28;26.10;41.70
80238;DHT22;69544;42.138;24.742;2023-06-10T06:38:54;26.10;41.70
80238;DHT22;69544;42.138;24.742;2023-06-10T06:41:20;26.10;41.70
80238;DHT22;69544;42.138;24.742;2023-06-10T06:43:49;26.10;41.70
80238;DHT22;69544;42.138;24.742;2023-06-10T06:46:15;26.10;41.70
80238;DHT22;69544;42.138;24.742;2023-06-10T06:48:41;26.10;41.70
80238;DHT22;69544;42.138;24.742;2023-06-10T06:51:07;26.10;41.70
80238;DHT22;69544;42.138;24.742;2023-06-10T06:53:32;26.10;41.70
80238;DHT22;69544;42.138;24.742;2023-06-10T06:55:58;26.10;41.70
80238;DHT22;69544;42.138;24.742;2023-06-10T06:58:24;26.10;41.70
80238;DHT22;69544;42.138;24.742;2023-06-10T07:00:50;26.10;41.70
80238;DHT22;69544;42.138;24.742;2023-06-10T07:03:15;26.10;41.60
80238;DHT22;69544;42.138;24.742;2023-06-10T07:05:41;26.20;41.60
80238;DHT22;69544;42.138;24.742;2023-06-10T07:08:07;26.20;41.70
80238;DHT22;69544;42.138;24.742;2023-06-10T07:10:33;26.20;41.60
80238;DHT22;69544;42.138;24.742;2023-06-10T07:12:59;26.10;41.60
80238;DHT22;69544;42.138;24.742;2023-06-10T07:15:25;26.20;41.60
80238;DHT22;69544;42.138;24.742;2023-06-10T07:17:51;26.20;41.60
80238;DHT22;69544;42.138;24.742;2023-06-10T07:20:17;26.20;41.60
80238;DHT22;69544;42.138;24.742;2023-06-10T07:22:43;26.20;41.60
80238;DHT22;69544;42.138;24.742;2023-06-10T07:25:09;26.20;41.60
80238;DHT22;69544;42.138;24.742;2023-06-10T07:27:35;26.20;41.60
80238;DHT22;69544;42.138;24.742;2023-06-10T07:30:06;26.20;41.60
80238;DHT22;69544;42.138;24.742;2023-06-10T07:32:33;26.10;41.50
80238;DHT22;69544;42.138;24.742;2023-06-10T07:34:59;26.20;41.60
80238;DHT22;69544;42.138;24.742;2023-06-10T07:37:25;26.10;41.50
80238;DHT22;69544;42.138;24.742;2023-06-10T07:39:51;26.10;41.50
80238;DHT22;69544;42.138;24.742;2023-06-10T07:42:17;26.20;41.60
80238;DHT22;69544;42.138;24.742;2023-06-10T07:44:43;26.20;41.60
80238;DHT22;69544;42.138;24.742;2023-06-10T07:47:08;26.20;41.60
80238;DHT22;69544;42.138;24.742;2023-06-10T07:49:34;26.20;41.60
80238;DHT22;69544;42.138;24.742;2023-06-10T07:52:00;26.20;41.60
80238;DHT22;69544;42.138;24.742;2023-06-10T07:54:26;26.20;41.60
80238;DHT22;69544;42.138;24.742;2023-06-10T07:56:51;26.20;41.50
80238;DHT22;69544;42.138;24.742;2023-06-10T07:59:18;26.20;41.60
80238;DHT22;69544;42.138;24.742;2023-06-10T08:01:44;26.20;41.50
80238;DHT22;69544;42.138;24.742;2023-06-10T08:04:10;26.20;41.60
80238;DHT22;69544;42.138;24.742;2023-06-10T08:06:36;26.20;41.60
80238;DHT22;69544;42.138;24.742;2023-06-10T08:09:03;26.20;41.50
80238;DHT22;69544;42.138;24.742;2023-06-10T08:11:29;26.20;41.50
80238;DHT22;69544;42.138;24.742;2023-06-10T08:13:55;26.20;41.50
80238;DHT22;69544;42.138;24.742;2023-06-10T08:16:21;26.20;41.50
80238;DHT22;69544;42.138;24.742;2023-06-10T08:18:47;26.20;41.60
80238;DHT22;69544;42.138;24.742;2023-06-10T08:21:12;26.20;41.50
80238;DHT22;69544;42.138;24.742;2023-06-10T08:23:38;26.20;41.50
80238;DHT22;69544;42.138;24.742;2023-06-10T08:26:04;26.20;41.50
80238;DHT22;69544;42.138;24.742;2023-06-10T08:28:30;26.20;41.50
80238;DHT22;69544;42.138;24.742;2023-06-10T08:30:56;26.20;41.50
80238;DHT22;69544;42.138;24.742;2023-06-10T08:33:22;26.20;41.50
80238;DHT22;69544;42.138;24.742;2023-06-10T08:35:48;26.20;41.50
80238;DHT22;69544;42.138;24.742;2023-06-10T08:38:14;26.20;41.50
80238;DHT22;69544;42.138;24.742;2023-06-10T08:40:40;26.20;41.40
80238;DHT22;69544;42.138;24.742;2023-06-10T08:43:07;26.30;41.50
80238;DHT22;69544;42.138;24.742;2023-06-10T08:45:35;26.30;41.50
80238;DHT22;69544;42.138;24.742;2023-06-10T08:48:05;26.30;41.50
80238;DHT22;69544;42.138;24.742;2023-06-10T08:50:37;26.30;41.60
80238;DHT22;69544;42.138;24.742;2023-06-10T08:53:05;26.20;41.40
80238;DHT22;69544;42.138;24.742;2023-06-10T08:55:38;26.30;41.50
80238;DHT22;69544;42.138;24.742;2023-06-10T08:58:07;26.30;41.60
80238;DHT22;69544;42.138;24.742;2023-06-10T09:00:35;26.30;41.50
80238;DHT22;69544;42.138;24.742;2023-06-10T09:03:04;26.30;41.50
80238;DHT22;69544;42.138;24.742;2023-06-10T09:05:33;26.30;41.50
80238;DHT22;69544;42.138;24.742;2023-06-10T09:08:00;26.30;41.50
80238;DHT22;69544;42.138;24.742;2023-06-10T09:10:27;26.30;41.40
80238;DHT22;69544;42.138;24.742;2023-06-10T09:12:52;26.30;41.40
80238;DHT22;69544;42.138;24.742;2023-06-10T09:15:18;26.30;41.40
80238;DHT22;69544;42.138;24.742;2023-06-10T09:17:45;26.30;41.40
80238;DHT22;69544;42.138;24.742;2023-06-10T09:20:11;26.30;41.40
80238;DHT22;69544;42.138;24.742;2023-06-10T09:22:37;26.30;41.50
80238;DHT22;69544;42.138;24.742;2023-06-10T09:25:08;26.30;41.40
80238;DHT22;69544;42.138;24.742;2023-06-10T09:27:44;26.30;41.40
80238;DHT22;69544;42.138;24.742;2023-06-10T09:30:12;26.30;41.40
80238;DHT22;69544;42.138;24.742;2023-06-10T09:32:49;26.30;41.40
80238;DHT22;69544;42.138;24.742;2023-06-10T09:35:14;26.20;41.40
80238;DHT22;69544;42.138;24.742;2023-06-10T09:37:40;26.30;41.40
80238;DHT22;69544;42.138;24.742;2023-06-10T09:40:07;26.30;41.40
80238;DHT22;69544;42.138;24.742;2023-06-10T09:42:35;26.30;41.40
80238;DHT22;69544;42.138;24.742;2023-06-10T09:45:05;26.30;41.40
80238;DHT22;69544;42.138;24.742;2023-06-10T09:47:31;26.30;41.40
80238;DHT22;69544;42.138;24.742;2023-06-10T09:49:57;26.30;41.40
80238;DHT22;69544;42.138;24.742;2023-06-10T09:52:24;26.30;41.40
80238;DHT22;69544;42.138;24.742;2023-06-10T09:54:54;26.30;41.30
80238;DHT22;69544;42.138;24.742;2023-06-10T09:57:21;26.30;41.30
80238;DHT22;69544;42.138;24.742;2023-06-10T09:59:47;26.30;41.30
80238;DHT22;69544;42.138;24.742;2023-06-10T10:02:17;26.40;41.30
80238;DHT22;69544;42.138;24.742;2023-06-10T10:04:43;26.40;41.40
80238;DHT22;69544;42.138;24.742;2023-06-10T10:07:10;26.40;41.30
80238;DHT22;69544;42.138;24.742;2023-06-10T10:09:37;26.30;41.30
80238;DHT22;69544;42.138;24.742;2023-06-10T10:12:12;26.40;41.30
80238;DHT22;69544;42.138;24.742;2023-06-10T10:14:39;26.30;41.30
80238;DHT22;69544;42.138;24.742;2023-06-10T10:17:09;26.30;41.20
80238;DHT22;69544;42.138;24.742;2023-06-10T10:20:03;26.40;41.30
80238;DHT22;69544;42.138;24.742;2023-06-10T10:22:38;26.40;41.30
80238;DHT22;69544;42.138;24.742;2023-06-10T10:25:12;26.40;41.30
80238;DHT22;69544;42.138;24.742;2023-06-10T10:27:44;26.30;41.30
80238;DHT22;69544;42.138;24.742;2023-06-10T10:30:14;26.40;41.30
80238;DHT22;69544;42.138;24.742;2023-06-10T10:35:21;26.30;41.30
80238;DHT22;69544;42.138;24.742;2023-06-10T10:37:52;26.30;41.30
80238;DHT22;69544;42.138;24.742;2023-06-10T10:40:22;26.40;41.30
80238;DHT22;69544;42.138;24.742;2023-06-10T10:42:50;26.30;41.30
80238;DHT22;69544;42.138;24.742;2023-06-10T10:45:16;26.30;41.30
80238;DHT22;69544;42.138;24.742;2023-06-10T10:47:45;26.40;41.40
80238;DHT22;69544;42.138;24.742;2023-06-10T10:50:18;26.40;41.30
80238;DHT22;69544;42.138;24.742;2023-06-10T10:52:54;26.40;41.30
80238;DHT22;69544;42.138;24.742;2023-06-10T10:55:20;26.40;41.30
80238;DHT22;69544;42.138;24.742;2023-06-10T10:57:54;26.40;41.30
80238;DHT22;69544;42.138;24.742;2023-06-10T11:00:35;26.40;41.30
80238;DHT22;69544;42.138;24.742;2023-06-10T11:03:06;26.30;41.20
80238;DHT22;69544;42.138;24.742;2023-06-10T11:05:41;26.40;41.30
80238;DHT22;69544;42.138;24.742;2023-06-10T11:08:10;26.40;41.30
80238;DHT22;69544;42.138;24.742;2023-06-10T11:10:37;26.30;41.30
80238;DHT22;69544;42.138;24.742;2023-06-10T11:13:18;26.30;41.20
80238;DHT22;69544;42.138;24.742;2023-06-10T11:15:46;26.40;41.30
80238;DHT22;69544;42.138;24.742;2023-06-10T11:18:25;26.30;41.20
80238;DHT22;69544;42.138;24.742;2023-06-10T11:20:53;26.40;41.40
80238;DHT22;69544;42.138;24.742;2023-06-10T11:31:28;26.40;41.30
80238;DHT22;69544;42.138;24.742;2023-06-10T11:33:56;26.40;41.30
80238;DHT22;69544;42.138;24.742;2023-06-10T11:36:22;26.40;41.30
80238;DHT22;69544;42.138;24.742;2023-06-10T11:38:49;26.40;41.40
80238;DHT22;69544;42.138;24.742;2023-06-10T11:41:17;26.40;41.30
80238;DHT22;69544;42.138;24.742;2023-06-10T11:43:44;26.40;41.30
80238;DHT22;69544;42.138;24.742;2023-06-10T11:46:11;26.40;41.30
80238;DHT22;69544;42.138;24.742;2023-06-10T11:48:37;26.40;41.30
80238;DHT22;69544;42.138;24.742;2023-06-10T11:51:09;26.40;41.20
80238;DHT22;69544;42.138;24.742;2023-06-10T11:53:34;26.40;41.20
80238;DHT22;69544;42.138;24.742;2023-06-10T11:56:00;26.50;41.30
80238;DHT22;69544;42.138;24.742;2023-06-10T11:58:26;26.50;41.20
80238;DHT22;69544;42.138;24.742;2023-06-10T12:00:53;26.50;41.20
80238;DHT22;69544;42.138;24.742;2023-06-10T12:03:20;26.50;41.20
80238;DHT22;69544;42.138;24.742;2023-06-10T12:08:23;26.50;41.20
80238;DHT22;69544;42.138;24.742;2023-06-10T12:10:49;26.50;41.10
80238;DHT22;69544;42.138;24.742;2023-06-10T12:13:15;26.50;41.00
80238;DHT22;69544;42.138;24.742;2023-06-10T12:15:43;26.50;41.00
80238;DHT22;69544;42.138;24.742;2023-06-10T12:18:19;26.60;41.10
80238;DHT22;69544;42.138;24.742;2023-06-10T12:20:45;26.60;41.10
80238;DHT22;69544;42.138;24.742;2023-06-10T12:23:11;26.60;41.00
80238;DHT22;69544;42.138;24.742;2023-06-10T12:25:38;26.60;41.00
80238;DHT22;69544;42.138;24.742;2023-06-10T12:28:05;26.60;41.00
80238;DHT22;69544;42.138;24.742;2023-06-10T12:30:32;26.60;40.90
80238;DHT22;69544;42.138;24.742;2023-06-10T12:32:57;26.60;41.00
80238;DHT22;69544;42.138;24.742;2023-06-10T12:35:27;26.60;41.00
80238;DHT22;69544;42.138;24.742;2023-06-10T12:38:05;26.60;40.90
80238;DHT22;69544;42.138;24.742;2023-06-10T12:40:38;26.60;40.90
80238;DHT22;69544;42.138;24.742;2023-06-10T12:43:06;26.60;40.90
80238;DHT22;69544;42.138;24.742;2023-06-10T12:45:39;26.60;41.00
80238;DHT22;69544;42.138;24.742;2023-06-10T12:50:46;26.60;41.00
80238;DHT22;69544;42.138;24.742;2023-06-10T12:53:12;26.60;41.00
80238;DHT22;69544;42.138;24.742;2023-06-10T12:55:38;26.60;41.00
80238;DHT22;69544;42.138;24.742;2023-06-10T12:58:04;26.70;40.90
80238;DHT22;69544;42.138;24.742;2023-06-10T13:00:30;26.70;40.90
80238;DHT22;69544;42.138;24.742;2023-06-10T13:02:57;26.70;40.90
80238;DHT22;69544;42.138;24.742;2023-06-10T13:05:23;26.70;40.90
80238;DHT22;69544;42.138;24.742;2023-06-10T13:07:49;26.70;40.80
80238;DHT22;69544;42.138;24.742;2023-06-10T13:10:16;26.70;40.90
80238;DHT22;69544;42.138;24.742;2023-06-10T13:12:45;26.80;40.90
80238;DHT22;69544;42.138;24.742;2023-06-10T13:15:12;26.80;40.80
80238;DHT22;69544;42.138;24.742;2023-06-10T13:17:38;26.80;40.90
80238;DHT22;69544;42.138;24.742;2023-06-10T13:20:06;26.80;40.80
80238;DHT22;69544;42.138;24.742;2023-06-10T13:22:33;26.80;40.80
80238;DHT22;69544;42.138;24.742;2023-06-10T13:25:00;26.80;40.80
80238;DHT22;69544;42.138;24.742;2023-06-10T13:27:26;26.80;40.80
80238;DHT22;69544;42.138;24.742;2023-06-10T13:29:52;26.80;40.70
80238;DHT22;69544;42.138;24.742;2023-06-10T13:32:18;26.80;40.70
80238;DHT22;69544;42.138;24.742;2023-06-10T13:34:44;26.80;40.70
80238;DHT22;69544;42.138;24.742;2023-06-10T13:37:10;26.90;40.80
80238;DHT22;69544;42.138;24.742;2023-06-10T13:39:38;26.90;41.90
80238;DHT22;69544;42.138;24.742;2023-06-10T13:42:04;26.90;40.70
80238;DHT22;69544;42.138;24.742;2023-06-10T13:44:31;26.90;40.70
80238;DHT22;69544;42.138;24.742;2023-06-10T13:46:59;26.90;40.60
80238;DHT22;69544;42.138;24.742;2023-06-10T13:49:25;26.90;40.60
80238;DHT22;69544;42.138;24.742;2023-06-10T13:51:50;26.90;40.60
80238;DHT22;69544;42.138;24.742;2023-06-10T13:54:16;26.90;40.60
80238;DHT22;69544;42.138;24.742;2023-06-10T13:56:42;26.90;40.50
80238;DHT22;69544;42.138;24.742;2023-06-10T13:59:08;26.90;40.40
80238;DHT22;69544;42.138;24.742;2023-06-10T14:01:33;26.90;40.50
80238;DHT22;69544;42.138;24.742;2023-06-10T14:04:00;26.90;40.50
80238;DHT22;69544;42.138;24.742;2023-06-10T14:06:26;26.90;40.50
80238;DHT22;69544;42.138;24.742;2023-06-10T14:08:52;26.90;40.50
80238;DHT22;69544;42.138;24.742;2023-06-10T14:11:20;26.90;40.50
80238;DHT22;69544;42.138;24.742;2023-06-10T14:13:46;26.90;40.60
80238;DHT22;69544;42.138;24.742;2023-06-10T14:16:12;26.90;40.60
80238;DHT22;69544;42.138;24.742;2023-06-10T14:18:38;26.90;40.60
80238;DHT22;69544;42.138;24.742;2023-06-10T14:21:04;26.90;40.40
80238;DHT22;69544;42.138;24.742;2023-06-10T14:23:30;27.00;40.50
80238;DHT22;69544;42.138;24.742;2023-06-10T14:25:56;26.90;40.40
80238;DHT22;69544;42.138;24.742;2023-06-10T14:28:21;26.90;40.40
80238;DHT22;69544;42.138;24.742;2023-06-10T14:30:49;26.90;40.60
80238;DHT22;69544;42.138;24.742;2023-06-10T14:33:15;26.90;40.60
80238;DHT22;69544;42.138;24.742;2023-06-10T14:35:41;27.00;40.60
80238;DHT22;69544;42.138;24.742;2023-06-10T14:38:08;27.00;40.60
80238;DHT22;69544;42.138;24.742;2023-06-10T14:40:34;27.00;40.50
80238;DHT22;69544;42.138;24.742;2023-06-10T14:42:59;27.00;40.50
80238;DHT22;69544;42.138;24.742;2023-06-10T14:45:26;27.00;40.40
80238;DHT22;69544;42.138;24.742;2023-06-10T14:47:52;27.00;40.40
80238;DHT22;69544;42.138;24.742;2023-06-10T14:50:18;27.00;40.40
80238;DHT22;69544;42.138;24.742;2023-06-10T14:52:44;27.00;40.50
80238;DHT22;69544;42.138;24.742;2023-06-10T14:55:09;27.00;40.50
80238;DHT22;69544;42.138;24.742;2023-06-10T14:57:35;27.00;40.50
80238;DHT22;69544;42.138;24.742;2023-06-10T15:00:01;27.00;40.50
80238;DHT22;69544;42.138;24.742;2023-06-10T15:02:27;27.00;40.50
80238;DHT22;69544;42.138;24.742;2023-06-10T15:04:53;27.00;40.50
80238;DHT22;69544;42.138;24.742;2023-06-10T15:07:18;27.00;40.40
80238;DHT22;69544;42.138;24.742;2023-06-10T15:09:44;27.00;40.40
80238;DHT22;69544;42.138;24.742;2023-06-10T15:12:10;27.00;40.40
80238;DHT22;69544;42.138;24.742;2023-06-10T15:14:36;27.00;41.50
80238;DHT22;69544;42.138;24.742;2023-06-10T15:17:02;27.00;40.40
80238;DHT22;69544;42.138;24.742;2023-06-10T15:19:28;27.00;40.40
80238;DHT22;69544;42.138;24.742;2023-06-10T15:21:54;27.00;40.40
80238;DHT22;69544;42.138;24.742;2023-06-10T15:24:20;27.00;40.50
80238;DHT22;69544;42.138;24.742;2023-06-10T15:26:45;27.00;40.40
80238;DHT22;69544;42.138;24.742;2023-06-10T15:29:11;27.00;40.40
80238;DHT22;69544;42.138;24.742;2023-06-10T15:31:38;27.00;40.50